createdAt,value
2022-12-16T00:01:27.259Z,20.55
2022-12-16T00:03:56.384Z,21.05
2022-12-16T00:06:25.986Z,20.73
2022-12-16T00:08:52.836Z,20.58
2022-12-16T00:11:20.581Z,21.25
2022-12-16T00:13:47.601Z,17.90
2022-12-16T00:16:17.411Z,19.77
2022-12-16T00:18:45.508Z,18.20
2022-12-16T00:21:12.944Z,18.08
2022-12-16T00:23:41.767Z,17.80
2022-12-16T00:26:09.290Z,16.38
2022-12-16T00:28:36.772Z,15.32
2022-12-16T00:31:04.016Z,15.82
2022-12-16T00:33:31.336Z,15.48
2022-12-16T00:35:58.112Z,15.10
2022-12-16T00:38:26.454Z,16.25
2022-12-16T00:40:53.160Z,15.40
2022-12-16T00:43:20.565Z,15.55
2022-12-16T00:45:48.542Z,15.85
2022-12-16T00:48:15.620Z,15.93
2022-12-16T00:50:48.786Z,15.65
2022-12-16T00:53:15.420Z,16.00
2022-12-16T00:55:42.288Z,16.10
2022-12-16T00:58:09.213Z,16.25
2022-12-16T01:00:35.931Z,16.80
2022-12-16T01:03:02.659Z,16.88
2022-12-16T01:05:29.868Z,16.83
2022-12-16T01:07:57.063Z,16.95
2022-12-16T01:10:24.968Z,16.98
2022-12-16T01:12:51.948Z,17.35
2022-12-16T01:15:19.133Z,18.00
2022-12-16T01:17:46.071Z,17.90
2022-12-16T01:20:13.311Z,17.83
2022-12-16T01:22:40.020Z,17.40
2022-12-16T01:25:07.044Z,17.90
2022-12-16T01:27:33.811Z,18.27
2022-12-16T01:30:00.520Z,17.83
2022-12-16T01:32:27.156Z,17.73
2022-12-16T01:34:55.706Z,17.58
2022-12-16T01:37:23.646Z,17.92
2022-12-16T01:39:50.828Z,18.15
2022-12-16T01:42:20.663Z,18.23
2022-12-16T01:44:49.790Z,17.90
2022-12-16T01:47:27.872Z,18.00
2022-12-16T01:50:01.181Z,19.02
2022-12-16T01:52:36.165Z,18.33
2022-12-16T01:55:20.528Z,17.77
2022-12-16T01:58:07.592Z,17.05
2022-12-16T02:00:37.337Z,16.80
2022-12-16T02:03:04.940Z,16.20
2022-12-16T02:05:34.371Z,16.20
2022-12-16T02:08:02.556Z,15.90
2022-12-16T02:10:34.014Z,17.00
2022-12-16T02:13:25.666Z,16.40
2022-12-16T02:15:52.837Z,16.33
2022-12-16T02:18:49.762Z,16.85
2022-12-16T02:21:31.904Z,16.52
2022-12-16T02:24:26.221Z,16.23
2022-12-16T02:27:22.396Z,16.70
2022-12-16T02:30:04.597Z,16.52
2022-12-16T02:32:51.436Z,16.77
2022-12-16T02:35:41.862Z,16.77
2022-12-16T02:38:34.727Z,17.38
2022-12-16T02:41:04.514Z,18.73
2022-12-16T02:43:51.877Z,18.45
2022-12-16T02:46:23.865Z,18.48
2022-12-16T02:48:50.553Z,18.40
2022-12-16T02:51:18.084Z,18.23
2022-12-16T02:53:46.640Z,17.42
2022-12-16T02:56:39.240Z,17.30
2022-12-16T02:59:16.986Z,16.73
2022-12-16T03:01:52.710Z,17.60
2022-12-16T03:04:41.455Z,16.80
2022-12-16T03:07:13.240Z,17.00
2022-12-16T03:09:42.059Z,19.65
2022-12-16T03:12:13.241Z,17.80
2022-12-16T03:14:44.001Z,16.92
2022-12-16T03:17:12.800Z,17.30
2022-12-16T03:19:41.628Z,17.60
2022-12-16T03:22:16.394Z,17.52
2022-12-16T03:24:43.334Z,18.23
2022-12-16T03:27:13.619Z,18.80
2022-12-16T03:29:55.696Z,19.30
2022-12-16T03:32:28.984Z,19.25
2022-12-16T03:35:01.821Z,20.05
2022-12-16T03:37:33.785Z,20.25
2022-12-16T03:40:03.248Z,21.40
2022-12-16T03:42:30.633Z,22.35
2022-12-16T03:44:57.564Z,21.42
2022-12-16T03:47:27.862Z,20.65
2022-12-16T03:49:54.552Z,20.38
2022-12-16T03:52:21.719Z,20.40
2022-12-16T03:54:48.341Z,20.23
2022-12-16T03:57:15.749Z,20.70
2022-12-16T03:59:43.173Z,20.65
2022-12-16T04:02:10.167Z,19.83
2022-12-16T04:04:37.015Z,19.27
2022-12-16T04:07:21.849Z,19.17
2022-12-16T04:09:49.701Z,18.10
2022-12-16T04:12:35.399Z,17.23
2022-12-16T04:15:20.812Z,16.45
2022-12-16T04:18:06.227Z,16.08
2022-12-16T04:20:55.208Z,15.75
2022-12-16T04:23:42.498Z,15.07
2022-12-16T04:26:09.517Z,16.20
2022-12-16T04:28:36.339Z,15.88
2022-12-16T04:31:03.743Z,16.67
2022-12-16T04:33:50.351Z,16.60
2022-12-16T04:36:35.473Z,16.08
2022-12-16T04:39:20.879Z,16.13
2022-12-16T04:42:06.119Z,16.15
2022-12-16T04:44:51.499Z,17.40
2022-12-16T04:47:37.008Z,18.25
2022-12-16T04:50:22.769Z,19.08
2022-12-16T04:53:11.537Z,17.27
2022-12-16T04:56:03.601Z,17.27
2022-12-16T04:58:49.651Z,17.98
2022-12-16T05:01:34.889Z,18.02
2022-12-16T05:04:20.331Z,17.77
2022-12-16T05:07:05.596Z,17.90
2022-12-16T05:09:50.762Z,18.13
2022-12-16T05:12:36.152Z,17.05
2022-12-16T05:15:21.688Z,19.50
2022-12-16T05:18:07.025Z,28.65
2022-12-16T05:20:52.499Z,26.67
2022-12-16T05:23:38.404Z,22.23
2022-12-16T05:26:23.656Z,25.23
2022-12-16T05:29:09.211Z,23.55
2022-12-16T05:31:54.316Z,30.73
2022-12-16T05:34:39.590Z,48.15
2022-12-16T05:37:25.291Z,42.83
2022-12-16T05:40:10.583Z,40.17
2022-12-16T05:42:55.753Z,30.77
2022-12-16T05:45:41.512Z,24.92
2022-12-16T05:48:26.929Z,21.65
2022-12-16T05:51:12.103Z,18.17
2022-12-16T05:53:57.506Z,18.63
2022-12-16T05:56:42.762Z,20.83
2022-12-16T05:59:28.238Z,22.77
2022-12-16T06:02:13.645Z,21.02
2022-12-16T06:04:59.312Z,19.40
2022-12-16T06:07:44.561Z,23.73
2022-12-16T06:10:29.985Z,26.85
2022-12-16T06:13:15.418Z,26.08
2022-12-16T06:16:06.742Z,24.38
2022-12-16T06:18:53.902Z,22.90
2022-12-16T06:21:39.568Z,21.33
2022-12-16T06:24:25.343Z,19.88
2022-12-16T06:27:10.460Z,19.90
2022-12-16T06:29:55.920Z,19.60
2022-12-16T06:32:41.363Z,19.80
2022-12-16T06:35:27.340Z,18.92
2022-12-16T06:38:12.799Z,22.67
2022-12-16T06:40:57.907Z,24.77
2022-12-16T06:43:43.137Z,26.45
2022-12-16T06:46:28.495Z,28.65
2022-12-16T06:49:13.866Z,27.65
2022-12-16T06:51:59.118Z,24.52
2022-12-16T06:54:44.395Z,22.65
2022-12-16T06:57:29.478Z,20.88
2022-12-16T07:00:14.821Z,20.00
2022-12-16T07:03:00.558Z,20.65
2022-12-16T07:05:46.066Z,22.07
2022-12-16T07:08:31.343Z,22.63
2022-12-16T07:11:17.500Z,23.33
2022-12-16T07:14:03.861Z,24.77
2022-12-16T07:16:49.321Z,25.83
2022-12-16T07:19:34.909Z,24.67
2022-12-16T07:22:20.209Z,25.33
2022-12-16T07:25:05.342Z,24.77
2022-12-16T07:27:50.451Z,26.42
2022-12-16T07:30:35.764Z,22.00
2022-12-16T07:33:21.069Z,20.85
2022-12-16T07:36:06.358Z,19.73
2022-12-16T07:38:51.824Z,22.05
2022-12-16T07:41:36.991Z,22.13
2022-12-16T07:44:22.830Z,21.50
2022-12-16T07:47:07.989Z,19.55
2022-12-16T07:49:53.682Z,20.23
2022-12-16T07:52:40.958Z,19.48
2022-12-16T07:55:26.490Z,24.92
2022-12-16T07:58:12.019Z,24.52
2022-12-16T08:00:58.062Z,24.33
2022-12-16T08:03:43.312Z,25.33
2022-12-16T08:06:28.597Z,27.50
2022-12-16T08:09:14.064Z,34.22
2022-12-16T08:11:59.363Z,31.85
2022-12-16T08:14:44.838Z,35.42
2022-12-16T08:17:30.141Z,32.03
2022-12-16T08:20:15.669Z,31.63
2022-12-16T08:23:00.945Z,34.33
2022-12-16T08:25:48.350Z,32.13
2022-12-16T08:28:33.810Z,28.98
2022-12-16T08:31:19.105Z,32.22
2022-12-16T08:34:04.306Z,32.22
2022-12-16T08:36:49.535Z,32.25
2022-12-16T08:39:34.768Z,36.17
2022-12-16T08:42:19.983Z,34.83
2022-12-16T08:45:05.204Z,35.70
2022-12-16T08:47:50.426Z,38.00
2022-12-16T08:50:35.811Z,45.00
2022-12-16T08:53:22.813Z,47.17
2022-12-16T08:56:08.085Z,44.70
2022-12-16T08:58:54.317Z,55.40
2022-12-16T09:01:41.296Z,42.88
2022-12-16T09:04:26.575Z,45.95
2022-12-16T09:07:11.970Z,48.97
2022-12-16T09:09:57.109Z,129.80
2022-12-16T09:15:28.517Z,147.07
2022-12-16T09:18:14.631Z,132.35
2022-12-16T09:21:00.726Z,93.32
2022-12-16T09:23:46.352Z,83.80
2022-12-16T09:26:31.775Z,91.90
2022-12-16T09:29:17.406Z,72.30
2022-12-16T09:32:02.451Z,69.82
2022-12-16T09:34:48.391Z,65.50
2022-12-16T09:37:33.563Z,58.35
2022-12-16T09:40:18.715Z,56.08
2022-12-16T09:46:07.709Z,52.20
2022-12-16T09:48:59.575Z,49.08
2022-12-16T09:51:45.737Z,55.40
2022-12-16T09:54:35.456Z,56.60
2022-12-16T09:57:23.151Z,59.40
2022-12-16T10:00:30.759Z,62.63
2022-12-16T10:03:18.346Z,68.90
2022-12-16T10:06:20.180Z,70.00
2022-12-16T10:09:34.414Z,74.90
2022-12-16T10:12:49.391Z,73.20
2022-12-16T10:15:51.341Z,74.30
2022-12-16T10:19:08.715Z,75.65
2022-12-16T10:22:25.400Z,77.68
2022-12-16T10:25:21.725Z,76.07
2022-12-16T10:28:14.994Z,75.18
2022-12-16T10:31:00.384Z,75.40
2022-12-16T10:33:47.839Z,76.05
2022-12-16T10:36:37.233Z,79.00
2022-12-16T10:39:39.945Z,75.95
2022-12-16T10:42:37.010Z,71.30
2022-12-16T10:45:23.424Z,66.70
2022-12-16T10:48:09.391Z,62.95
2022-12-16T10:50:54.974Z,61.78
2022-12-16T10:53:45.408Z,55.95
2022-12-16T10:56:56.212Z,62.17
2022-12-16T10:59:43.031Z,58.70
2022-12-16T11:02:40.007Z,54.58
2022-12-16T11:05:46.838Z,49.38
2022-12-16T11:08:51.668Z,46.35
2022-12-16T11:11:46.601Z,45.42
2022-12-16T11:14:40.115Z,49.60
2022-12-16T11:17:44.297Z,47.38
2022-12-16T11:20:37.563Z,45.75
2022-12-16T11:23:41.176Z,46.63
2022-12-16T11:26:33.099Z,45.67
2022-12-16T11:29:36.480Z,48.85
2022-12-16T11:32:30.973Z,54.72
2022-12-16T11:35:19.210Z,54.05
2022-12-16T11:38:05.751Z,53.40
2022-12-16T11:40:52.303Z,50.40
2022-12-16T11:43:39.101Z,53.72
2022-12-16T11:46:29.943Z,56.70
2022-12-16T11:49:25.277Z,53.20
2022-12-16T11:56:04.889Z,54.15
2022-12-16T11:58:59.417Z,51.00
2022-12-16T12:01:55.372Z,48.13
2022-12-16T12:04:41.690Z,51.22
2022-12-16T12:07:57.368Z,50.53
2022-12-16T12:10:52.041Z,56.63
2022-12-16T12:13:57.910Z,50.35
2022-12-16T12:17:07.598Z,51.60
2022-12-16T12:20:20.117Z,51.83
2022-12-16T12:23:05.533Z,55.67
2022-12-16T12:26:10.910Z,59.22
2022-12-16T12:29:17.740Z,51.97
2022-12-16T12:32:29.385Z,46.95
2022-12-16T12:35:58.557Z,47.25
2022-12-16T12:39:32.609Z,45.65
2022-12-16T12:42:43.107Z,46.05
2022-12-16T12:45:48.739Z,50.47
2022-12-16T12:49:03.913Z,55.22
2022-12-16T12:52:18.171Z,48.67
2022-12-16T12:55:12.084Z,51.28
2022-12-16T12:58:02.501Z,55.28
2022-12-16T13:00:51.059Z,53.78
2022-12-16T13:04:03.970Z,50.70
2022-12-16T13:06:50.203Z,51.28
2022-12-16T13:09:54.545Z,45.90
2022-12-16T13:12:42.072Z,48.72
2022-12-16T13:15:49.098Z,53.05
2022-12-16T13:18:49.081Z,60.35
2022-12-16T13:21:57.059Z,55.28
2022-12-16T13:24:45.215Z,51.08
2022-12-16T13:27:33.745Z,50.60
2022-12-16T13:30:30.743Z,52.30
2022-12-16T13:33:23.672Z,49.05
2022-12-16T13:36:17.537Z,47.03
2022-12-16T13:39:08.106Z,48.20
2022-12-16T13:41:53.356Z,46.13
2022-12-16T13:47:59.981Z,42.03
2022-12-16T13:51:00.017Z,42.17
2022-12-16T13:53:52.532Z,46.03
2022-12-16T13:56:44.726Z,49.33
2022-12-16T13:59:41.261Z,53.33
2022-12-16T14:02:50.719Z,48.05
2022-12-16T14:05:46.732Z,44.97
2022-12-16T14:08:43.202Z,49.65
2022-12-16T14:11:53.138Z,54.25
2022-12-16T14:15:01.698Z,67.68
2022-12-16T14:17:58.657Z,56.90
2022-12-16T14:21:09.365Z,44.63
2022-12-16T14:24:06.886Z,56.22
2022-12-16T14:26:56.015Z,118.65
2022-12-16T14:29:46.022Z,61.15
2022-12-16T14:32:52.742Z,63.85
2022-12-16T14:35:43.974Z,68.85
2022-12-16T14:38:42.638Z,70.40
2022-12-16T14:41:33.116Z,68.32
2022-12-16T14:44:18.735Z,62.08
2022-12-16T14:47:11.658Z,57.90
2022-12-16T14:50:11.276Z,59.45
2022-12-16T14:52:58.099Z,55.65
2022-12-16T14:55:52.301Z,55.92
2022-12-16T14:58:39.960Z,61.25
2022-12-16T15:01:33.627Z,61.47
2022-12-16T15:04:21.890Z,71.30
2022-12-16T15:07:10.622Z,55.13
2022-12-16T15:10:03.171Z,49.97
2022-12-16T15:12:53.910Z,50.67
2022-12-16T15:15:52.880Z,47.85
2022-12-16T15:18:51.188Z,49.15
2022-12-16T15:21:36.868Z,50.03
2022-12-16T15:24:45.395Z,47.17
2022-12-16T15:27:39.890Z,68.70
2022-12-16T15:30:54.131Z,55.30
2022-12-16T15:34:00.359Z,45.88
2022-12-16T15:36:51.264Z,56.70
2022-12-16T15:39:54.272Z,49.17
2022-12-16T15:42:45.750Z,45.25
2022-12-16T15:45:44.903Z,47.08
2022-12-16T15:48:31.842Z,56.03
2022-12-16T15:51:17.183Z,49.75
2022-12-16T15:54:02.623Z,49.83
2022-12-16T15:57:03.415Z,50.42
2022-12-16T15:59:54.803Z,51.75
2022-12-16T16:02:46.238Z,58.20
2022-12-16T16:05:41.726Z,54.45
2022-12-16T16:08:29.718Z,55.03
2022-12-16T16:11:15.508Z,54.05
2022-12-16T16:14:06.196Z,55.13
2022-12-16T16:16:52.615Z,55.10
2022-12-16T16:19:44.552Z,55.55
2022-12-16T16:22:31.868Z,44.38
2022-12-16T16:25:17.169Z,54.13
2022-12-16T16:28:02.816Z,54.60
2022-12-16T16:30:48.559Z,52.10
2022-12-16T16:33:34.286Z,49.90
2022-12-16T16:36:19.759Z,47.45
2022-12-16T16:39:05.019Z,41.13
2022-12-16T16:41:50.192Z,39.30
2022-12-16T16:44:35.679Z,37.30
2022-12-16T16:47:20.950Z,50.45
2022-12-16T16:50:06.494Z,44.97
2022-12-16T16:52:51.654Z,45.33
2022-12-16T16:55:39.875Z,42.55
2022-12-16T16:58:58.511Z,26.27
2022-12-16T17:01:43.863Z,28.10
2022-12-16T17:04:49.034Z,26.05
2022-12-16T17:07:34.367Z,28.27
2022-12-16T17:10:19.964Z,28.75
2022-12-16T17:13:05.247Z,28.60
2022-12-16T17:15:54.780Z,29.98
2022-12-16T17:18:45.700Z,27.02
2022-12-16T17:21:32.258Z,27.02
2022-12-16T17:24:17.495Z,31.13
2022-12-16T17:27:03.137Z,27.88
2022-12-16T17:29:48.802Z,31.48
2022-12-16T17:32:34.097Z,32.25
2022-12-16T17:35:19.468Z,31.08
2022-12-16T17:38:04.730Z,31.45
2022-12-16T17:40:50.156Z,35.75
2022-12-16T17:43:35.919Z,37.25
2022-12-16T17:46:26.542Z,39.25
2022-12-16T17:49:15.857Z,36.67
2022-12-16T17:52:02.198Z,40.78
2022-12-16T17:54:47.693Z,40.60
2022-12-16T17:57:32.881Z,65.90
2022-12-16T18:00:28.563Z,56.38
2022-12-16T18:03:14.330Z,64.40
2022-12-16T18:05:59.797Z,55.95
2022-12-16T18:08:45.425Z,38.20
2022-12-16T18:11:32.564Z,36.63
2022-12-16T18:14:21.399Z,30.33
2022-12-16T18:17:06.764Z,31.38
2022-12-16T18:19:51.744Z,33.25
2022-12-16T18:25:22.667Z,32.20
2022-12-16T18:28:07.900Z,27.23
2022-12-16T18:30:55.139Z,36.85
2022-12-16T18:33:40.257Z,36.85
2022-12-16T18:36:25.843Z,44.53
2022-12-16T18:39:11.181Z,39.55
2022-12-16T18:42:01.561Z,37.13
2022-12-16T18:44:47.147Z,38.60
2022-12-16T18:47:32.417Z,37.85
2022-12-16T18:50:20.103Z,35.40
2022-12-16T18:53:09.089Z,34.13
2022-12-16T18:55:55.020Z,37.50
2022-12-16T18:58:51.206Z,43.08
2022-12-16T19:01:37.678Z,45.47
2022-12-16T19:04:22.964Z,47.60
2022-12-16T19:07:08.196Z,48.58
2022-12-16T19:09:53.892Z,47.17
2022-12-16T19:12:39.208Z,48.72
2022-12-16T19:15:24.795Z,45.60
2022-12-16T19:18:11.069Z,50.33
2022-12-16T19:20:56.761Z,60.15
2022-12-16T19:23:42.031Z,49.42
2022-12-16T19:26:27.170Z,52.42
2022-12-16T19:29:12.738Z,47.00
2022-12-16T19:31:58.029Z,46.20
2022-12-16T19:34:43.622Z,47.95
2022-12-16T19:37:28.822Z,47.03
2022-12-16T19:40:14.079Z,47.17
2022-12-16T19:42:59.420Z,42.38
2022-12-16T19:45:45.064Z,43.15
2022-12-16T19:48:30.461Z,42.20
2022-12-16T19:51:20.299Z,45.90
2022-12-16T19:54:06.758Z,41.78
2022-12-16T19:56:52.533Z,43.55
2022-12-16T19:59:40.723Z,42.88
2022-12-16T20:02:29.121Z,41.97
2022-12-16T20:05:14.747Z,43.35
2022-12-16T20:08:00.194Z,39.83
2022-12-16T20:10:45.485Z,41.60
2022-12-16T20:13:31.182Z,41.92
2022-12-16T20:16:24.692Z,46.53
2022-12-16T20:19:10.061Z,41.50
2022-12-16T20:21:56.322Z,36.90
2022-12-16T20:24:41.914Z,34.88
2022-12-16T20:27:27.095Z,41.35
2022-12-16T20:30:12.603Z,42.55
2022-12-16T20:32:58.201Z,45.90
2022-12-16T20:35:43.321Z,54.72
2022-12-16T20:38:28.591Z,67.82
2022-12-16T20:41:15.415Z,49.67
2022-12-16T20:44:00.935Z,45.10
2022-12-16T20:46:47.146Z,42.30
2022-12-16T20:49:32.878Z,46.95
2022-12-16T20:52:18.182Z,47.00
2022-12-16T20:55:03.688Z,37.95
2022-12-16T20:57:49.158Z,33.72
2022-12-16T21:00:34.690Z,36.60
2022-12-16T21:03:19.972Z,48.45
2022-12-16T21:06:05.399Z,46.65
2022-12-16T21:08:51.025Z,49.33
2022-12-16T21:11:36.787Z,50.15
2022-12-16T21:14:22.251Z,46.55
2022-12-16T21:17:07.862Z,47.13
2022-12-16T21:19:53.226Z,46.03
2022-12-16T21:22:41.340Z,45.05
2022-12-16T21:25:27.206Z,45.65
2022-12-16T21:28:18.420Z,45.65
2022-12-16T21:31:04.179Z,44.50
2022-12-16T21:33:49.925Z,46.80
2022-12-16T21:36:35.587Z,46.13
2022-12-16T21:39:21.073Z,40.20
2022-12-16T21:42:06.067Z,41.40
2022-12-16T21:44:51.605Z,40.22
2022-12-16T21:47:37.059Z,41.15
2022-12-16T21:50:23.017Z,39.53
2022-12-16T21:53:08.356Z,39.47
2022-12-16T21:55:53.624Z,39.70
2022-12-16T21:58:38.773Z,29.63
2022-12-16T22:01:24.103Z,32.35
2022-12-16T22:04:09.352Z,32.38
2022-12-16T22:06:54.701Z,33.08
2022-12-16T22:09:40.414Z,27.42
2022-12-16T22:12:25.659Z,29.00
2022-12-16T22:15:11.154Z,26.75
2022-12-16T22:17:58.578Z,23.17
2022-12-16T22:20:44.686Z,22.73
2022-12-16T22:23:30.190Z,28.10
2022-12-16T22:26:17.078Z,31.55
2022-12-16T22:29:02.323Z,31.85
2022-12-16T22:31:47.653Z,32.03
2022-12-16T22:34:33.721Z,35.10
2022-12-16T22:37:18.989Z,31.30
2022-12-16T22:40:04.475Z,38.55
2022-12-16T22:42:49.757Z,37.60
2022-12-16T22:45:35.426Z,39.20
2022-12-16T22:48:20.865Z,36.10
2022-12-16T22:51:06.134Z,34.08
2022-12-16T22:53:51.462Z,32.38
2022-12-16T22:56:37.189Z,30.77
2022-12-16T22:59:30.021Z,29.30
2022-12-16T23:02:15.446Z,31.90
2022-12-16T23:05:01.053Z,39.25
2022-12-16T23:07:46.346Z,36.30
2022-12-16T23:10:31.825Z,28.60
2022-12-16T23:13:17.223Z,26.90
2022-12-16T23:16:02.713Z,25.95
2022-12-16T23:18:48.189Z,28.05
2022-12-16T23:21:35.250Z,28.75
2022-12-16T23:24:25.087Z,29.20
2022-12-16T23:27:10.399Z,27.55
2022-12-16T23:29:56.661Z,23.40
2022-12-16T23:32:43.499Z,22.95
2022-12-16T23:35:29.157Z,23.90
2022-12-16T23:38:25.624Z,22.48
2022-12-16T23:41:17.322Z,23.33
2022-12-16T23:44:02.955Z,28.65
2022-12-16T23:46:48.752Z,30.48
2022-12-16T23:49:34.035Z,29.08
2022-12-16T23:52:19.199Z,29.13
2022-12-16T23:55:04.410Z,28.73
2022-12-16T23:57:49.584Z,27.70
